createdAt,value
2018-12-20T00:01:12.563Z,4.20
2018-12-20T00:03:43.682Z,4.00
2018-12-20T00:06:14.954Z,4.10
2018-12-20T00:08:45.461Z,4.00
2018-12-20T00:11:17.252Z,4.10
2018-12-20T00:13:50.075Z,3.90
2018-12-20T00:16:20.050Z,4.00
2018-12-20T00:18:50.716Z,4.00
2018-12-20T00:21:21.932Z,4.10
2018-12-20T00:23:52.760Z,4.10
2018-12-20T00:26:24.433Z,4.10
2018-12-20T00:28:55.298Z,4.00
2018-12-20T00:31:25.311Z,4.30
2018-12-20T00:33:56.161Z,4.10
2018-12-20T00:36:27.782Z,4.00
2018-12-20T00:38:58.761Z,4.20
2018-12-20T00:41:30.577Z,4.10
2018-12-20T00:44:04.142Z,3.90
2018-12-20T00:46:34.108Z,4.10
2018-12-20T00:49:05.355Z,4.10
2018-12-20T00:51:34.818Z,4.10
2018-12-20T00:54:06.458Z,4.10
2018-12-20T00:56:38.098Z,4.10
2018-12-20T00:59:08.228Z,4.40
2018-12-20T01:01:39.290Z,4.20
2018-12-20T01:04:10.668Z,4.10
2018-12-20T01:06:40.213Z,3.90
2018-12-20T01:09:11.508Z,4.20
2018-12-20T01:11:42.535Z,4.10
2018-12-20T01:14:13.265Z,4.10
2018-12-20T01:16:44.098Z,4.10
2018-12-20T01:19:14.235Z,4.10
2018-12-20T01:21:44.337Z,4.20
2018-12-20T01:24:14.073Z,4.10
2018-12-20T01:26:46.049Z,4.40
2018-12-20T01:29:16.760Z,4.40
2018-12-20T01:31:46.873Z,4.40
2018-12-20T01:34:18.835Z,4.40
2018-12-20T01:36:50.668Z,4.00
2018-12-20T01:39:20.982Z,4.40
2018-12-20T01:41:51.904Z,4.30
2018-12-20T01:44:22.075Z,4.30
2018-12-20T01:46:52.222Z,4.40
2018-12-20T01:49:22.349Z,4.50
2018-12-20T01:51:52.251Z,4.40
2018-12-20T01:54:21.866Z,4.40
2018-12-20T01:56:52.810Z,4.50
2018-12-20T01:59:22.702Z,4.10
2018-12-20T02:01:53.298Z,4.40
2018-12-20T02:04:23.840Z,4.40
2018-12-20T02:06:54.883Z,4.40
2018-12-20T02:09:27.962Z,4.40
2018-12-20T02:11:58.251Z,4.40
2018-12-20T02:14:28.549Z,4.40
2018-12-20T02:16:59.654Z,4.20
2018-12-20T02:19:29.981Z,4.40
2018-12-20T02:22:00.266Z,4.40
2018-12-20T02:24:30.184Z,4.30
2018-12-20T02:27:00.190Z,4.30
2018-12-20T02:29:30.909Z,4.30
2018-12-20T02:32:01.486Z,4.40
2018-12-20T02:34:31.503Z,4.40
2018-12-20T02:37:02.742Z,4.40
2018-12-20T02:39:33.401Z,4.40
2018-12-20T02:42:03.822Z,4.50
2018-12-20T02:44:34.002Z,4.40
2018-12-20T02:47:04.138Z,4.10
2018-12-20T02:49:34.216Z,4.30
2018-12-20T02:52:05.201Z,4.30
2018-12-20T02:54:36.577Z,4.40
2018-12-20T02:57:06.467Z,4.50
2018-12-20T02:59:37.316Z,4.40
2018-12-20T03:02:07.942Z,4.30
2018-12-20T03:04:38.842Z,4.40
2018-12-20T03:07:10.141Z,4.40
2018-12-20T03:09:44.813Z,4.40
2018-12-20T03:12:15.630Z,4.40
2018-12-20T03:14:46.360Z,4.40
2018-12-20T03:17:16.451Z,4.40
2018-12-20T03:19:48.208Z,4.30
2018-12-20T03:22:18.763Z,4.30
2018-12-20T03:24:50.328Z,4.40
2018-12-20T03:27:21.041Z,4.40
2018-12-20T03:29:52.447Z,4.40
2018-12-20T03:32:23.743Z,4.40
2018-12-20T03:34:55.526Z,4.50
2018-12-20T03:37:26.523Z,4.20
2018-12-20T03:39:56.867Z,4.40
2018-12-20T03:42:26.622Z,4.30
2018-12-20T03:44:58.085Z,4.40
2018-12-20T03:47:28.729Z,4.40
2018-12-20T03:50:00.274Z,4.20
2018-12-20T03:52:31.403Z,4.40
2018-12-20T03:55:01.293Z,4.40
2018-12-20T03:57:32.002Z,4.40
2018-12-20T04:00:02.194Z,4.70
2018-12-20T04:02:32.265Z,4.40
2018-12-20T04:05:02.565Z,4.30
2018-12-20T04:07:33.266Z,4.50
2018-12-20T04:10:04.754Z,4.40
2018-12-20T04:12:36.481Z,4.40
2018-12-20T04:15:06.067Z,4.50
2018-12-20T04:17:37.471Z,4.50
2018-12-20T04:20:09.626Z,4.40
2018-12-20T04:22:40.914Z,4.60
2018-12-20T04:25:11.755Z,4.50
2018-12-20T04:27:42.677Z,4.50
2018-12-20T04:30:13.016Z,4.40
2018-12-20T04:32:43.155Z,4.70
2018-12-20T04:35:14.107Z,4.50
2018-12-20T04:37:44.378Z,4.40
2018-12-20T04:40:15.026Z,4.50
2018-12-20T04:42:45.306Z,4.40
2018-12-20T04:45:15.486Z,4.30
2018-12-20T04:47:46.600Z,4.70
2018-12-20T04:50:18.988Z,4.40
2018-12-20T04:52:49.378Z,4.60
2018-12-20T04:55:20.238Z,4.40
2018-12-20T04:57:53.532Z,4.70
2018-12-20T05:00:24.046Z,4.50
2018-12-20T05:02:54.375Z,4.50
2018-12-20T05:05:24.546Z,4.40
2018-12-20T05:07:55.409Z,4.40
2018-12-20T05:10:26.709Z,4.50
2018-12-20T05:12:56.341Z,4.30
2018-12-20T05:15:26.935Z,4.30
2018-12-20T05:17:58.291Z,4.20
2018-12-20T05:20:30.314Z,4.10
2018-12-20T05:23:01.639Z,3.90
2018-12-20T05:25:33.627Z,4.20
2018-12-20T05:28:03.712Z,4.10
2018-12-20T05:30:35.161Z,4.10
2018-12-20T05:33:06.804Z,4.20
2018-12-20T05:35:39.379Z,4.00
2018-12-20T05:38:09.610Z,4.00
2018-12-20T05:40:40.254Z,4.00
2018-12-20T05:43:12.095Z,4.30
2018-12-20T05:45:53.708Z,4.00
2018-12-20T05:48:24.089Z,4.40
2018-12-20T05:51:04.929Z,4.10
2018-12-20T05:53:38.596Z,4.20
2018-12-20T05:56:09.350Z,4.10
2018-12-20T05:58:44.591Z,3.90
2018-12-20T06:01:16.407Z,4.20
2018-12-20T06:03:48.387Z,4.10
2018-12-20T06:06:20.604Z,3.90
2018-12-20T06:08:50.881Z,4.30
2018-12-20T06:11:22.067Z,3.90
2018-12-20T06:13:55.252Z,4.30
2018-12-20T06:16:27.095Z,4.10
2018-12-20T06:18:58.352Z,4.30
2018-12-20T06:21:28.102Z,4.40
2018-12-20T06:24:00.431Z,4.20
2018-12-20T06:26:32.668Z,4.30
2018-12-20T06:29:03.931Z,4.40
2018-12-20T06:31:35.518Z,4.30
2018-12-20T06:34:08.320Z,4.20
2018-12-20T06:36:39.010Z,4.50
2018-12-20T06:39:09.061Z,4.30
2018-12-20T06:41:42.680Z,4.40
2018-12-20T06:44:13.917Z,4.30
2018-12-20T06:46:52.206Z,4.40
2018-12-20T06:49:24.275Z,4.30
2018-12-20T06:51:55.920Z,4.20
2018-12-20T06:54:29.680Z,4.50
2018-12-20T06:57:02.872Z,4.20
2018-12-20T06:59:36.083Z,4.40
2018-12-20T07:02:05.785Z,4.20
2018-12-20T07:04:40.205Z,4.30
2018-12-20T07:07:12.352Z,4.30
2018-12-20T07:09:43.624Z,4.30
2018-12-20T07:12:15.307Z,4.00
2018-12-20T07:14:47.631Z,4.40
2018-12-20T07:17:19.805Z,4.30
2018-12-20T07:19:51.738Z,3.90
2018-12-20T07:22:23.310Z,4.10
2018-12-20T07:24:55.377Z,4.40
2018-12-20T07:27:28.043Z,4.40
2018-12-20T07:29:58.159Z,4.40
2018-12-20T07:32:28.181Z,4.20
2018-12-20T07:34:59.438Z,4.20
2018-12-20T07:37:30.628Z,4.50
2018-12-20T07:40:02.013Z,4.40
2018-12-20T07:42:34.665Z,4.70
2018-12-20T07:45:05.745Z,4.90
2018-12-20T07:47:36.575Z,4.60
2018-12-20T07:50:08.414Z,4.80
2018-12-20T07:52:38.373Z,5.00
2018-12-20T07:55:11.155Z,5.10
2018-12-20T07:57:41.832Z,4.90
2018-12-20T08:00:12.149Z,5.00
2018-12-20T08:02:42.905Z,5.00
2018-12-20T08:05:14.200Z,5.10
2018-12-20T08:07:45.647Z,5.00
2018-12-20T08:10:14.964Z,5.00
2018-12-20T08:12:46.704Z,5.00
2018-12-20T08:15:20.548Z,5.20
2018-12-20T08:17:51.309Z,4.90
2018-12-20T08:20:22.706Z,5.10
2018-12-20T08:22:54.902Z,5.30
2018-12-20T08:25:25.501Z,5.20
2018-12-20T08:27:56.558Z,5.30
2018-12-20T08:30:28.707Z,5.60
2018-12-20T08:33:02.762Z,5.70
2018-12-20T08:35:36.637Z,5.90
2018-12-20T08:38:08.240Z,6.00
2018-12-20T08:40:38.557Z,6.10
2018-12-20T08:43:10.531Z,6.30
2018-12-20T08:45:41.261Z,6.10
2018-12-20T08:48:13.936Z,6.10
2018-12-20T08:50:45.953Z,6.00
2018-12-20T08:53:16.589Z,6.10
2018-12-20T08:55:47.058Z,6.20
2018-12-20T08:58:17.914Z,6.50
2018-12-20T09:00:49.592Z,6.20
2018-12-20T09:03:21.978Z,6.30
2018-12-20T09:05:53.254Z,6.40
2018-12-20T09:08:25.458Z,6.40
2018-12-20T09:10:56.421Z,6.50
2018-12-20T09:13:26.765Z,6.50
2018-12-20T09:15:58.588Z,6.40
2018-12-20T09:18:28.852Z,6.30
2018-12-20T09:20:59.176Z,6.60
2018-12-20T09:23:30.199Z,6.30
2018-12-20T09:26:00.742Z,6.20
2018-12-20T09:28:31.513Z,6.40
2018-12-20T09:31:01.628Z,6.40
2018-12-20T09:33:32.355Z,6.20
2018-12-20T09:36:04.131Z,6.30
2018-12-20T09:38:36.166Z,6.20
2018-12-20T09:41:07.701Z,6.60
2018-12-20T09:43:38.599Z,6.40
2018-12-20T09:46:10.824Z,6.60
2018-12-20T09:48:42.974Z,6.80
2018-12-20T09:51:15.072Z,6.80
2018-12-20T09:53:47.169Z,6.70
2018-12-20T09:56:17.466Z,7.00
2018-12-20T09:58:48.818Z,6.90
2018-12-20T10:01:22.101Z,7.10
2018-12-20T10:03:53.038Z,7.10
2018-12-20T10:06:24.210Z,7.20
2018-12-20T10:08:57.353Z,7.10
2018-12-20T10:11:30.864Z,7.10
2018-12-20T10:14:01.638Z,7.00
2018-12-20T10:16:33.241Z,7.30
2018-12-20T10:19:03.902Z,7.50
2018-12-20T10:21:34.558Z,7.40
2018-12-20T10:24:05.172Z,7.20
2018-12-20T10:26:35.574Z,7.20
2018-12-20T10:29:06.693Z,7.60
2018-12-20T10:31:38.654Z,7.30
2018-12-20T10:34:10.687Z,7.60
2018-12-20T10:36:42.155Z,7.30
2018-12-20T10:39:12.747Z,7.70
2018-12-20T10:41:44.317Z,7.40
2018-12-20T10:44:15.351Z,7.40
2018-12-20T10:46:46.289Z,7.40
2018-12-20T10:49:15.989Z,7.50
2018-12-20T10:51:47.276Z,7.40
2018-12-20T10:54:18.522Z,7.50
2018-12-20T10:56:48.692Z,7.50
2018-12-20T10:59:19.953Z,7.70
2018-12-20T11:02:56.903Z,7.80
2018-12-20T11:05:33.649Z,7.40
2018-12-20T11:08:11.214Z,7.30
2018-12-20T11:10:44.459Z,7.50
2018-12-20T11:13:21.909Z,7.40
2018-12-20T11:15:54.042Z,7.30
2018-12-20T11:18:24.795Z,7.40
2018-12-20T11:20:56.193Z,7.50
2018-12-20T11:23:28.375Z,7.90
2018-12-20T11:26:00.624Z,7.70
2018-12-20T11:28:31.734Z,7.70
2018-12-20T11:31:02.626Z,8.00
2018-12-20T11:33:33.922Z,7.70
2018-12-20T11:36:05.440Z,8.00
2018-12-20T11:38:36.183Z,8.00
2018-12-20T11:41:08.108Z,7.80
2018-12-20T11:43:39.129Z,7.70
2018-12-20T11:46:10.463Z,7.90
2018-12-20T11:48:44.205Z,7.80
2018-12-20T11:51:15.289Z,8.00
2018-12-20T11:53:45.660Z,7.80
2018-12-20T11:56:16.611Z,7.70
2018-12-20T11:58:48.740Z,8.00
2018-12-20T12:01:18.713Z,7.90
2018-12-20T12:03:48.434Z,8.10
2018-12-20T12:06:18.758Z,8.30
2018-12-20T12:08:49.839Z,7.80
2018-12-20T12:11:20.887Z,8.10
2018-12-20T12:13:50.536Z,8.20
2018-12-20T12:16:21.736Z,8.10
2018-12-20T12:18:53.294Z,7.90
2018-12-20T12:21:24.237Z,8.10
2018-12-20T12:23:54.867Z,8.10
2018-12-20T12:26:24.452Z,8.10
2018-12-20T12:28:56.354Z,7.80
2018-12-20T12:31:26.672Z,8.00
2018-12-20T12:33:57.020Z,7.90
2018-12-20T12:36:29.361Z,7.90
2018-12-20T12:38:59.365Z,8.20
2018-12-20T12:41:29.633Z,7.90
2018-12-20T12:44:00.006Z,8.00
2018-12-20T12:46:30.894Z,8.00
2018-12-20T12:49:01.427Z,8.10
2018-12-20T12:51:32.179Z,8.30
2018-12-20T12:54:03.541Z,8.10
2018-12-20T12:56:36.367Z,8.30
2018-12-20T12:59:06.715Z,8.50
2018-12-20T13:01:41.168Z,8.60
2018-12-20T13:04:11.944Z,8.40
2018-12-20T13:06:42.066Z,8.10
2018-12-20T13:09:12.602Z,8.70
2018-12-20T13:11:42.877Z,8.60
2018-12-20T13:14:13.760Z,8.70
2018-12-20T13:16:43.823Z,8.60
2018-12-20T13:19:14.232Z,8.80
2018-12-20T13:21:45.207Z,9.10
2018-12-20T13:24:15.498Z,9.00
2018-12-20T13:26:46.912Z,9.10
2018-12-20T13:29:17.138Z,8.80
2018-12-20T13:31:49.433Z,8.90
2018-12-20T13:34:19.767Z,8.70
2018-12-20T13:36:50.771Z,8.70
2018-12-20T13:39:20.341Z,8.40
2018-12-20T13:41:50.305Z,8.30
2018-12-20T13:44:20.748Z,8.10
2018-12-20T13:46:52.876Z,8.40
2018-12-20T13:49:23.333Z,8.40
2018-12-20T13:51:54.596Z,8.30
2018-12-20T13:54:26.184Z,8.30
2018-12-20T13:56:56.637Z,8.40
2018-12-20T13:59:28.229Z,8.20
2018-12-20T14:02:01.102Z,8.50
2018-12-20T14:04:31.162Z,8.30
2018-12-20T14:07:01.020Z,8.40
2018-12-20T14:09:31.615Z,8.30
2018-12-20T14:12:02.176Z,8.30
2018-12-20T14:14:33.119Z,8.30
2018-12-20T14:17:03.365Z,8.20
2018-12-20T14:19:33.788Z,7.80
2018-12-20T14:22:05.132Z,8.00
2018-12-20T14:24:36.378Z,7.70
2018-12-20T14:27:06.666Z,8.00
2018-12-20T14:29:37.626Z,8.00
2018-12-20T14:32:09.821Z,7.70
2018-12-20T14:34:43.054Z,7.80
2018-12-20T14:37:15.436Z,7.40
2018-12-20T14:39:45.045Z,7.50
2018-12-20T14:42:14.616Z,7.70
2018-12-20T14:44:44.946Z,7.40
2018-12-20T14:47:15.422Z,7.30
2018-12-20T14:49:45.057Z,7.40
2018-12-20T14:52:15.249Z,7.50
2018-12-20T14:54:46.139Z,7.10
2018-12-20T14:57:16.320Z,7.40
2018-12-20T14:59:46.624Z,7.30
2018-12-20T15:02:17.359Z,7.30
2018-12-20T15:04:48.349Z,7.50
2018-12-20T15:07:18.804Z,7.40
2018-12-20T15:09:50.030Z,7.40
2018-12-20T15:12:19.989Z,7.20
2018-12-20T15:14:50.981Z,7.50
2018-12-20T15:17:21.045Z,7.50
2018-12-20T15:19:51.819Z,7.50
2018-12-20T15:22:22.522Z,7.40
2018-12-20T15:24:53.236Z,7.40
2018-12-20T15:27:23.800Z,7.10
2018-12-20T15:29:56.008Z,7.40
2018-12-20T15:32:27.249Z,7.30
2018-12-20T15:34:58.404Z,7.00
2018-12-20T15:37:30.176Z,7.10
2018-12-20T15:40:01.378Z,7.00
2018-12-20T15:42:32.265Z,7.10
2018-12-20T15:45:04.276Z,6.90
2018-12-20T15:47:34.243Z,6.70
2018-12-20T15:50:04.409Z,6.80
2018-12-20T15:52:36.492Z,6.80
2018-12-20T15:55:06.887Z,6.60
2018-12-20T15:57:36.931Z,6.50
2018-12-20T16:00:08.370Z,6.90
2018-12-20T16:02:39.664Z,6.90
2018-12-20T16:05:10.290Z,6.40
2018-12-20T16:07:40.748Z,6.60
2018-12-20T16:10:11.302Z,6.40
2018-12-20T16:12:41.599Z,6.40
2018-12-20T16:15:11.973Z,6.20
2018-12-20T16:17:41.785Z,6.40
2018-12-20T16:20:11.936Z,6.50
2018-12-20T16:22:41.614Z,6.30
2018-12-20T16:25:12.077Z,6.20
2018-12-20T16:27:42.422Z,6.00
2018-12-20T16:30:12.955Z,6.20
2018-12-20T16:32:45.366Z,6.20
2018-12-20T16:35:16.302Z,6.30
2018-12-20T16:37:45.874Z,6.30
2018-12-20T16:40:15.555Z,6.30
2018-12-20T16:42:46.748Z,6.20
2018-12-20T16:45:16.514Z,6.10
2018-12-20T16:47:47.509Z,6.10
2018-12-20T16:50:18.222Z,6.20
2018-12-20T16:52:47.924Z,5.90
2018-12-20T16:55:17.535Z,6.20
2018-12-20T16:57:48.106Z,6.20
2018-12-20T17:00:19.617Z,6.20
2018-12-20T17:02:50.528Z,6.30
2018-12-20T17:05:22.415Z,6.20
2018-12-20T17:07:53.511Z,6.20
2018-12-20T17:10:23.084Z,6.20
2018-12-20T17:12:54.279Z,6.20
2018-12-20T17:15:24.400Z,6.20
2018-12-20T17:17:54.068Z,6.30
2018-12-20T17:20:25.062Z,6.20
2018-12-20T17:22:55.115Z,6.00
2018-12-20T17:25:27.875Z,6.20
2018-12-20T17:28:00.863Z,6.10
2018-12-20T17:30:31.865Z,6.40
2018-12-20T17:33:02.145Z,6.60
2018-12-20T17:35:33.078Z,6.40
2018-12-20T17:38:04.839Z,6.50
2018-12-20T17:40:34.899Z,6.50
2018-12-20T17:43:05.781Z,6.40
2018-12-20T17:45:36.939Z,6.30
2018-12-20T17:48:07.048Z,6.20
2018-12-20T17:50:38.116Z,6.10
2018-12-20T17:53:12.188Z,6.40
2018-12-20T17:55:44.973Z,6.40
2018-12-20T17:58:15.234Z,6.30
2018-12-20T18:00:44.982Z,5.90
2018-12-20T18:03:15.245Z,6.50
2018-12-20T18:05:47.187Z,6.20
2018-12-20T18:08:19.364Z,6.10
2018-12-20T18:10:50.036Z,6.20
2018-12-20T18:13:20.563Z,6.40
2018-12-20T18:15:52.459Z,6.50
2018-12-20T18:18:22.994Z,6.30
2018-12-20T18:20:53.554Z,6.30
2018-12-20T18:23:23.848Z,6.50
2018-12-20T18:25:53.395Z,6.30
2018-12-20T18:28:23.399Z,6.20
2018-12-20T18:30:53.791Z,6.60
2018-12-20T18:33:25.306Z,6.50
2018-12-20T18:35:56.813Z,6.40
2018-12-20T18:38:28.783Z,6.40
2018-12-20T18:40:59.113Z,6.40
2018-12-20T18:43:29.418Z,6.30
2018-12-20T18:45:59.521Z,6.50
2018-12-20T18:48:29.393Z,6.10
2018-12-20T18:51:00.423Z,6.10
2018-12-20T18:53:30.485Z,6.20
2018-12-20T18:56:00.474Z,6.30
2018-12-20T18:58:31.290Z,6.10
2018-12-20T19:01:01.416Z,5.90
2018-12-20T19:03:31.060Z,6.30
2018-12-20T19:06:01.360Z,6.10
2018-12-20T19:08:31.589Z,6.10
2018-12-20T19:11:01.724Z,6.40
2018-12-20T19:13:31.692Z,6.40
2018-12-20T19:16:01.952Z,6.50
2018-12-20T19:18:31.567Z,6.10
2018-12-20T19:21:03.049Z,6.10
2018-12-20T19:23:34.835Z,6.20
2018-12-20T19:26:07.064Z,6.20
2018-12-20T19:28:40.256Z,6.40
2018-12-20T19:31:12.799Z,6.40
2018-12-20T19:33:43.163Z,6.40
2018-12-20T19:36:13.391Z,6.20
2018-12-20T19:38:44.177Z,6.10
2018-12-20T19:41:15.020Z,6.10
2018-12-20T19:43:44.939Z,6.10
2018-12-20T19:46:15.239Z,6.40
2018-12-20T19:48:45.681Z,6.20
2018-12-20T19:51:15.253Z,6.10
2018-12-20T19:53:45.421Z,5.90
2018-12-20T19:56:15.562Z,6.20
2018-12-20T19:58:47.164Z,5.80
2018-12-20T20:01:17.601Z,5.90
2018-12-20T20:03:49.255Z,5.90
2018-12-20T20:06:20.404Z,5.60
2018-12-20T20:08:51.155Z,5.90
2018-12-20T20:11:21.153Z,5.90
2018-12-20T20:13:53.021Z,5.90
2018-12-20T20:16:22.831Z,5.70
2018-12-20T20:18:53.478Z,5.80
2018-12-20T20:21:24.653Z,5.50
2018-12-20T20:23:55.989Z,5.50
2018-12-20T20:26:26.303Z,5.40
2018-12-20T20:28:56.502Z,5.70
2018-12-20T20:31:26.960Z,5.80
2018-12-20T20:33:57.287Z,5.70
2018-12-20T20:36:28.244Z,5.50
2018-12-20T20:39:02.105Z,5.60
2018-12-20T20:41:32.455Z,5.40
2018-12-20T20:44:02.251Z,5.50
2018-12-20T20:46:32.575Z,5.50
2018-12-20T20:49:03.312Z,5.30
2018-12-20T20:51:34.812Z,5.30
2018-12-20T20:54:05.313Z,5.60
2018-12-20T20:56:35.976Z,5.60
2018-12-20T20:59:06.496Z,5.10
2018-12-20T21:01:38.876Z,5.60
2018-12-20T21:04:09.961Z,5.50
2018-12-20T21:06:47.004Z,5.40
2018-12-20T21:09:14.024Z,5.20
2018-12-20T21:11:44.045Z,5.40
2018-12-20T21:14:13.972Z,5.30
2018-12-20T21:16:44.414Z,5.20
2018-12-20T21:19:15.460Z,5.60
2018-12-20T21:21:45.726Z,5.20
2018-12-20T21:24:15.831Z,5.40
2018-12-20T21:26:45.282Z,5.50
2018-12-20T21:29:15.330Z,5.20
2018-12-20T21:31:45.945Z,5.60
2018-12-20T21:34:15.825Z,5.20
2018-12-20T21:36:47.594Z,5.20
2018-12-20T21:39:17.946Z,5.30
2018-12-20T21:41:49.613Z,5.20
2018-12-20T21:44:19.763Z,5.20
2018-12-20T21:46:49.899Z,5.30
2018-12-20T21:49:19.768Z,5.30
2018-12-20T21:51:50.240Z,5.20
2018-12-20T21:54:20.803Z,5.30
2018-12-20T21:56:50.378Z,5.50
2018-12-20T21:59:20.576Z,5.60
2018-12-20T22:01:50.473Z,5.60
2018-12-20T22:04:20.846Z,5.50
2018-12-20T22:06:50.842Z,5.50
2018-12-20T22:09:20.803Z,5.70
2018-12-20T22:11:51.139Z,5.90
2018-12-20T22:14:22.078Z,5.50
2018-12-20T22:16:52.106Z,5.30
2018-12-20T22:19:22.152Z,5.40
2018-12-20T22:21:56.216Z,5.70
2018-12-20T22:24:26.295Z,5.30
2018-12-20T22:26:57.063Z,5.40
2018-12-20T22:29:26.715Z,5.30
2018-12-20T22:31:57.132Z,5.60
2018-12-20T22:34:27.775Z,5.40
2018-12-20T22:36:58.614Z,5.30
2018-12-20T22:39:28.692Z,5.40
2018-12-20T22:41:59.410Z,5.30
2018-12-20T22:44:29.350Z,5.20
2018-12-20T22:46:58.963Z,5.20
2018-12-20T22:49:29.924Z,5.50
2018-12-20T22:52:00.768Z,5.50
2018-12-20T22:54:30.464Z,5.50
2018-12-20T22:57:00.717Z,5.30
2018-12-20T22:59:30.791Z,5.00
2018-12-20T23:02:00.506Z,5.20
2018-12-20T23:04:30.596Z,5.10
2018-12-20T23:07:02.815Z,5.20
2018-12-20T23:09:33.891Z,5.20
2018-12-20T23:12:08.491Z,5.10
2018-12-20T23:14:39.363Z,5.00
2018-12-20T23:17:10.160Z,5.00
2018-12-20T23:19:39.958Z,5.30
2018-12-20T23:22:10.753Z,5.30
2018-12-20T23:24:41.642Z,4.80
2018-12-20T23:27:12.196Z,4.90
2018-12-20T23:29:43.168Z,5.00
2018-12-20T23:32:12.751Z,4.90
2018-12-20T23:34:43.139Z,5.20
2018-12-20T23:37:13.134Z,5.00
2018-12-20T23:39:43.153Z,5.10
2018-12-20T23:42:12.993Z,5.20
2018-12-20T23:44:42.612Z,5.20
2018-12-20T23:47:12.155Z,5.40
2018-12-20T23:49:42.803Z,5.30
2018-12-20T23:52:12.860Z,5.50
2018-12-20T23:54:42.879Z,5.70
2018-12-20T23:57:14.211Z,5.40
2018-12-20T23:59:44.780Z,5.50
